Suttons Bay, MI (49682)

1:43 PM EST on December 08, 2016 (GMT -0500)
KMISUTTO2 | | Change Station
Active Advisory: Winter Storm Warning

Elev 797 ft 45.01 °N, 85.64 °W | Updated 3 minutes ago

Snow
Snow
32.4 °F
Feels Like 27 °F
N
6.0
Wind Variable Wind from North
Gusts 8.0 mph

Today
High -- | Low -- °F
--% Chance of Precip.
Yesterday
High -- | Low -- °F
Precip. -- in
Pressure 29.98 in
Visibility 1.0 miles
Clouds Mostly Cloudy 900 ft
Mostly Cloudy 2100 ft
Overcast 3000 ft
Windchill 27 °F
Dew Point 27 °F
Humidity 81%
Rainfall 0.00 in
Snow Depth Not available.
8:08 AM 5:01 PM
Waxing Gibbous, 65% visible
SPECI KTVC 081826Z 27006KT 1SM -SN BR BKN009 BKN021 OVC030 M01/M03 A2998 RMK AO2 P0003 T10111028
Pressure 29.98 in
Visibility 1.0 miles
Clouds Mostly Cloudy 900 ft
Mostly Cloudy 2100 ft
Overcast 3000 ft
Windchill 27 °F
Dew Point 27 °F
Humidity 81%
Rainfall 0.00 in
Snow Depth Not available.
8:08 AM 5:01 PM
Waxing Gibbous, 65% visible
SPECI KTVC 081826Z 27006KT 1SM -SN BR BKN009 BKN021 OVC030 M01/M03 A2998 RMK AO2 P0003 T10111028

10-Day Weather Forecast

Almanac

Astronomy

Dec. 08, 2016 Rise Set
Actual Time
Civil Twilight
Nautical Twilight
Astronomical Twilight
Moon
Length of Visible Light
Length of Day
Tomorrow will be .
, % of the Moon is Illuminated

Today's Extremes

State Highs State Lows

Community

WunderPhotos

Upload Photos

1,956,277 photos uploaded!

WunderBlog® & News

Nearby

Air Quality

  Air Quality AQ Index Pollutant
Not available.

Snow Depth

Station Depth Elevation

Earthquake Activity

City Distance Mag. Time & Date
Minimum magnitude displayed is 2.5.

Coastal Water Temperatures

Place Temperature

Stations

Nearby Weather Stations

Station Location Temp. Windchill Dew Point Humidity Wind Precip. Elev Updated Type
                   

Watches & Warnings

Winter Storm Warning
Issued: 10:17 AM EST Dec. 8, 2016 – National Weather Service

... Winter Storm Warning remains in effect until 3 PM EST Friday...

* snow showers through Friday.

* The heaviest snowfall rates will occur this afternoon and
tonight.

* Total snow accumulations of 8 to 14 inches are expected.

* Areas of blowing snow are also expected... especially today.

* Look for significant reductions in visibility at times.

* Plan on difficult driving conditions... including during the
evening commute.

Precautionary/preparedness actions...

A Winter Storm Warning for snow means severe winter weather
conditions are expected. If you must travel... keep an extra
flashlight... food... and water in your vehicle in case of an
emergency. For the latest Road conditions... go to the mdot
website at Michigan.Gov.